sensor_id;sensor_type;location;lat;lon;timestamp;P1;durP1;ratioP1;P2;durP2;ratioP2
10725;SDS011;5414;59.782;16.378;2023-04-10T00:02:19;1.30;;;1.00;;
10725;SDS011;5414;59.782;16.378;2023-04-10T00:04:45;1.10;;;0.83;;
10725;SDS011;5414;59.782;16.378;2023-04-10T00:07:13;1.27;;;1.13;;
10725;SDS011;5414;59.782;16.378;2023-04-10T00:09:39;1.10;;;0.90;;
10725;SDS011;5414;59.782;16.378;2023-04-10T00:12:05;1.17;;;0.90;;
10725;SDS011;5414;59.782;16.378;2023-04-10T00:14:31;1.13;;;1.00;;
10725;SDS011;5414;59.782;16.378;2023-04-10T00:16:57;1.27;;;0.93;;
10725;SDS011;5414;59.782;16.378;2023-04-10T00:19:23;2.23;;;0.93;;
10725;SDS011;5414;59.782;16.378;2023-04-10T00:21:50;1.60;;;1.00;;
10725;SDS011;5414;59.782;16.378;2023-04-10T00:24:16;1.07;;;0.80;;
10725;SDS011;5414;59.782;16.378;2023-04-10T00:26:42;1.63;;;0.97;;
10725;SDS011;5414;59.782;16.378;2023-04-10T00:29:08;1.10;;;0.93;;
10725;SDS011;5414;59.782;16.378;2023-04-10T00:31:34;1.10;;;1.00;;
10725;SDS011;5414;59.782;16.378;2023-04-10T00:34:00;1.67;;;0.90;;
10725;SDS011;5414;59.782;16.378;2023-04-10T00:36:26;1.07;;;1.00;;
10725;SDS011;5414;59.782;16.378;2023-04-10T00:38:52;1.47;;;0.93;;
10725;SDS011;5414;59.782;16.378;2023-04-10T00:41:18;1.50;;;1.00;;
10725;SDS011;5414;59.782;16.378;2023-04-10T00:43:44;1.73;;;1.00;;
10725;SDS011;5414;59.782;16.378;2023-04-10T00:46:10;1.90;;;1.10;;
10725;SDS011;5414;59.782;16.378;2023-04-10T00:48:36;1.30;;;1.00;;
10725;SDS011;5414;59.782;16.378;2023-04-10T00:51:03;1.40;;;1.03;;
10725;SDS011;5414;59.782;16.378;2023-04-10T00:53:31;1.27;;;1.10;;
10725;SDS011;5414;59.782;16.378;2023-04-10T00:55:57;1.20;;;1.00;;
10725;SDS011;5414;59.782;16.378;2023-04-10T00:58:24;1.57;;;1.17;;
10725;SDS011;5414;59.782;16.378;2023-04-10T01:00:51;1.77;;;1.13;;
10725;SDS011;5414;59.782;16.378;2023-04-10T01:03:17;1.10;;;1.00;;
10725;SDS011;5414;59.782;16.378;2023-04-10T01:05:46;1.23;;;1.00;;
10725;SDS011;5414;59.782;16.378;2023-04-10T01:08:16;1.70;;;1.23;;
10725;SDS011;5414;59.782;16.378;2023-04-10T01:10:49;1.00;;;0.90;;
10725;SDS011;5414;59.782;16.378;2023-04-10T01:13:38;1.77;;;1.00;;
10725;SDS011;5414;59.782;16.378;2023-04-10T01:18:37;0.97;;;0.97;;
10725;SDS011;5414;59.782;16.378;2023-04-10T01:21:06;1.30;;;1.00;;
10725;SDS011;5414;59.782;16.378;2023-04-10T01:26:21;0.87;;;0.87;;
10725;SDS011;5414;59.782;16.378;2023-04-10T01:29:08;0.83;;;0.77;;
10725;SDS011;5414;59.782;16.378;2023-04-10T01:31:40;1.77;;;0.97;;
10725;SDS011;5414;59.782;16.378;2023-04-10T01:34:08;0.87;;;0.87;;
10725;SDS011;5414;59.782;16.378;2023-04-10T01:36:36;1.93;;;0.90;;
10725;SDS011;5414;59.782;16.378;2023-04-10T01:39:03;0.97;;;0.87;;
10725;SDS011;5414;59.782;16.378;2023-04-10T01:41:30;0.80;;;0.80;;
10725;SDS011;5414;59.782;16.378;2023-04-10T01:43:57;0.97;;;0.80;;
10725;SDS011;5414;59.782;16.378;2023-04-10T01:46:23;0.70;;;0.70;;
10725;SDS011;5414;59.782;16.378;2023-04-10T01:48:50;1.43;;;1.00;;
10725;SDS011;5414;59.782;16.378;2023-04-10T01:51:17;0.87;;;0.83;;
10725;SDS011;5414;59.782;16.378;2023-04-10T01:53:44;0.70;;;0.70;;
10725;SDS011;5414;59.782;16.378;2023-04-10T01:56:11;0.80;;;0.80;;
10725;SDS011;5414;59.782;16.378;2023-04-10T01:58:37;0.80;;;0.80;;
10725;SDS011;5414;59.782;16.378;2023-04-10T02:01:03;0.90;;;0.90;;
10725;SDS011;5414;59.782;16.378;2023-04-10T02:03:29;1.07;;;0.90;;
10725;SDS011;5414;59.782;16.378;2023-04-10T02:06:00;1.03;;;0.80;;
10725;SDS011;5414;59.782;16.378;2023-04-10T02:08:38;0.87;;;0.80;;
10725;SDS011;5414;59.782;16.378;2023-04-10T02:13:31;1.30;;;1.00;;
10725;SDS011;5414;59.782;16.378;2023-04-10T02:15:58;1.10;;;1.00;;
10725;SDS011;5414;59.782;16.378;2023-04-10T02:18:25;1.30;;;1.10;;
10725;SDS011;5414;59.782;16.378;2023-04-10T02:20:52;1.27;;;1.00;;
10725;SDS011;5414;59.782;16.378;2023-04-10T02:23:18;2.07;;;1.10;;
10725;SDS011;5414;59.782;16.378;2023-04-10T02:25:45;1.20;;;1.10;;
10725;SDS011;5414;59.782;16.378;2023-04-10T02:28:11;1.13;;;1.03;;
10725;SDS011;5414;59.782;16.378;2023-04-10T02:30:37;1.00;;;0.90;;
10725;SDS011;5414;59.782;16.378;2023-04-10T02:33:03;1.43;;;1.33;;
10725;SDS011;5414;59.782;16.378;2023-04-10T02:35:29;1.13;;;1.03;;
10725;SDS011;5414;59.782;16.378;2023-04-10T02:37:55;1.40;;;1.23;;
10725;SDS011;5414;59.782;16.378;2023-04-10T02:40:21;1.47;;;0.90;;
10725;SDS011;5414;59.782;16.378;2023-04-10T02:42:48;1.30;;;1.20;;
10725;SDS011;5414;59.782;16.378;2023-04-10T02:45:14;1.30;;;1.20;;
10725;SDS011;5414;59.782;16.378;2023-04-10T02:47:40;1.20;;;1.10;;
10725;SDS011;5414;59.782;16.378;2023-04-10T02:50:06;1.20;;;1.10;;
10725;SDS011;5414;59.782;16.378;2023-04-10T02:52:32;1.13;;;1.03;;
10725;SDS011;5414;59.782;16.378;2023-04-10T02:54:58;1.20;;;1.10;;
10725;SDS011;5414;59.782;16.378;2023-04-10T02:57:24;1.27;;;1.10;;
10725;SDS011;5414;59.782;16.378;2023-04-10T02:59:51;1.53;;;1.00;;
10725;SDS011;5414;59.782;16.378;2023-04-10T03:02:17;1.00;;;0.90;;
10725;SDS011;5414;59.782;16.378;2023-04-10T03:04:43;1.10;;;1.00;;
10725;SDS011;5414;59.782;16.378;2023-04-10T03:07:09;1.47;;;1.10;;
10725;SDS011;5414;59.782;16.378;2023-04-10T03:09:36;1.30;;;1.10;;
10725;SDS011;5414;59.782;16.378;2023-04-10T03:12:02;1.30;;;1.10;;
10725;SDS011;5414;59.782;16.378;2023-04-10T03:14:28;1.33;;;0.90;;
10725;SDS011;5414;59.782;16.378;2023-04-10T03:16:54;1.40;;;1.17;;
10725;SDS011;5414;59.782;16.378;2023-04-10T03:19:20;0.90;;;0.90;;
10725;SDS011;5414;59.782;16.378;2023-04-10T03:21:46;1.37;;;1.03;;
10725;SDS011;5414;59.782;16.378;2023-04-10T03:24:12;1.10;;;1.00;;
10725;SDS011;5414;59.782;16.378;2023-04-10T03:26:38;1.57;;;0.93;;
10725;SDS011;5414;59.782;16.378;2023-04-10T03:29:05;1.30;;;1.20;;
10725;SDS011;5414;59.782;16.378;2023-04-10T03:31:31;2.07;;;1.33;;
10725;SDS011;5414;59.782;16.378;2023-04-10T03:33:57;1.10;;;1.00;;
10725;SDS011;5414;59.782;16.378;2023-04-10T03:36:23;1.30;;;1.20;;
10725;SDS011;5414;59.782;16.378;2023-04-10T03:38:51;1.17;;;1.03;;
10725;SDS011;5414;59.782;16.378;2023-04-10T03:41:17;1.20;;;1.07;;
10725;SDS011;5414;59.782;16.378;2023-04-10T03:43:43;1.20;;;0.90;;
10725;SDS011;5414;59.782;16.378;2023-04-10T03:46:09;2.57;;;1.30;;
10725;SDS011;5414;59.782;16.378;2023-04-10T03:48:35;1.40;;;1.17;;
10725;SDS011;5414;59.782;16.378;2023-04-10T03:51:02;1.13;;;0.97;;
10725;SDS011;5414;59.782;16.378;2023-04-10T03:53:28;1.60;;;1.00;;
10725;SDS011;5414;59.782;16.378;2023-04-10T03:55:54;1.40;;;1.00;;
10725;SDS011;5414;59.782;16.378;2023-04-10T03:58:20;1.90;;;1.10;;
10725;SDS011;5414;59.782;16.378;2023-04-10T04:00:46;1.20;;;1.10;;
10725;SDS011;5414;59.782;16.378;2023-04-10T04:03:12;1.40;;;1.00;;
10725;SDS011;5414;59.782;16.378;2023-04-10T04:05:38;1.10;;;1.00;;
10725;SDS011;5414;59.782;16.378;2023-04-10T04:08:04;1.13;;;1.03;;
10725;SDS011;5414;59.782;16.378;2023-04-10T04:10:31;1.20;;;1.10;;
10725;SDS011;5414;59.782;16.378;2023-04-10T04:12:57;1.50;;;1.10;;
10725;SDS011;5414;59.782;16.378;2023-04-10T04:15:23;1.20;;;1.10;;
10725;SDS011;5414;59.782;16.378;2023-04-10T04:17:50;1.47;;;1.20;;
10725;SDS011;5414;59.782;16.378;2023-04-10T04:20:16;1.43;;;1.30;;
10725;SDS011;5414;59.782;16.378;2023-04-10T04:22:42;1.27;;;0.97;;
10725;SDS011;5414;59.782;16.378;2023-04-10T04:25:08;1.67;;;1.10;;
10725;SDS011;5414;59.782;16.378;2023-04-10T04:27:35;1.20;;;1.10;;
10725;SDS011;5414;59.782;16.378;2023-04-10T04:30:02;1.40;;;1.20;;
10725;SDS011;5414;59.782;16.378;2023-04-10T04:32:28;2.70;;;1.20;;
10725;SDS011;5414;59.782;16.378;2023-04-10T04:34:54;1.97;;;1.40;;
10725;SDS011;5414;59.782;16.378;2023-04-10T04:37:21;1.47;;;1.23;;
10725;SDS011;5414;59.782;16.378;2023-04-10T04:39:47;1.47;;;1.37;;
10725;SDS011;5414;59.782;16.378;2023-04-10T04:42:13;1.73;;;1.23;;
10725;SDS011;5414;59.782;16.378;2023-04-10T04:44:39;1.87;;;1.23;;
10725;SDS011;5414;59.782;16.378;2023-04-10T04:47:06;1.40;;;1.30;;
10725;SDS011;5414;59.782;16.378;2023-04-10T04:49:32;1.37;;;1.17;;
10725;SDS011;5414;59.782;16.378;2023-04-10T04:51:58;1.10;;;1.00;;
10725;SDS011;5414;59.782;16.378;2023-04-10T04:54:24;1.50;;;1.23;;
10725;SDS011;5414;59.782;16.378;2023-04-10T04:56:50;2.50;;;1.23;;
10725;SDS011;5414;59.782;16.378;2023-04-10T04:59:16;4.17;;;1.47;;
10725;SDS011;5414;59.782;16.378;2023-04-10T05:01:42;2.43;;;1.30;;
10725;SDS011;5414;59.782;16.378;2023-04-10T05:04:08;1.80;;;1.30;;
10725;SDS011;5414;59.782;16.378;2023-04-10T05:06:34;1.87;;;1.20;;
10725;SDS011;5414;59.782;16.378;2023-04-10T05:09:01;2.03;;;1.40;;
10725;SDS011;5414;59.782;16.378;2023-04-10T05:11:27;1.47;;;1.30;;
10725;SDS011;5414;59.782;16.378;2023-04-10T05:13:53;2.43;;;1.30;;
10725;SDS011;5414;59.782;16.378;2023-04-10T05:16:19;2.60;;;1.47;;
10725;SDS011;5414;59.782;16.378;2023-04-10T05:18:45;2.03;;;1.50;;
10725;SDS011;5414;59.782;16.378;2023-04-10T05:21:11;1.60;;;1.30;;
10725;SDS011;5414;59.782;16.378;2023-04-10T05:23:37;2.20;;;1.50;;
10725;SDS011;5414;59.782;16.378;2023-04-10T05:26:03;2.10;;;1.60;;
10725;SDS011;5414;59.782;16.378;2023-04-10T05:28:30;4.17;;;1.70;;
10725;SDS011;5414;59.782;16.378;2023-04-10T05:30:56;2.13;;;1.43;;
10725;SDS011;5414;59.782;16.378;2023-04-10T05:33:22;2.77;;;1.37;;
10725;SDS011;5414;59.782;16.378;2023-04-10T05:35:48;2.37;;;1.67;;
10725;SDS011;5414;59.782;16.378;2023-04-10T05:38:14;2.63;;;1.93;;
10725;SDS011;5414;59.782;16.378;2023-04-10T05:40:43;2.03;;;1.70;;
10725;SDS011;5414;59.782;16.378;2023-04-10T05:43:09;1.67;;;1.57;;
10725;SDS011;5414;59.782;16.378;2023-04-10T05:45:35;3.13;;;1.87;;
10725;SDS011;5414;59.782;16.378;2023-04-10T05:48:01;2.23;;;1.80;;
10725;SDS011;5414;59.782;16.378;2023-04-10T05:50:27;2.00;;;1.83;;
10725;SDS011;5414;59.782;16.378;2023-04-10T05:52:53;2.53;;;1.93;;
10725;SDS011;5414;59.782;16.378;2023-04-10T05:55:19;2.20;;;2.00;;
10725;SDS011;5414;59.782;16.378;2023-04-10T05:57:45;3.23;;;2.03;;
10725;SDS011;5414;59.782;16.378;2023-04-10T06:00:12;2.30;;;1.87;;
10725;SDS011;5414;59.782;16.378;2023-04-10T06:02:39;3.37;;;1.97;;
10725;SDS011;5414;59.782;16.378;2023-04-10T06:05:05;2.13;;;1.93;;
10725;SDS011;5414;59.782;16.378;2023-04-10T06:07:31;2.47;;;1.90;;
10725;SDS011;5414;59.782;16.378;2023-04-10T06:09:57;3.03;;;2.00;;
10725;SDS011;5414;59.782;16.378;2023-04-10T06:12:25;2.30;;;2.10;;
10725;SDS011;5414;59.782;16.378;2023-04-10T06:14:51;3.50;;;2.17;;
10725;SDS011;5414;59.782;16.378;2023-04-10T06:17:17;2.97;;;2.00;;
10725;SDS011;5414;59.782;16.378;2023-04-10T06:19:45;3.30;;;2.23;;
10725;SDS011;5414;59.782;16.378;2023-04-10T06:22:11;2.97;;;1.90;;
10725;SDS011;5414;59.782;16.378;2023-04-10T06:24:37;2.40;;;2.10;;
10725;SDS011;5414;59.782;16.378;2023-04-10T06:27:03;3.93;;;1.90;;
10725;SDS011;5414;59.782;16.378;2023-04-10T06:29:29;2.40;;;2.20;;
10725;SDS011;5414;59.782;16.378;2023-04-10T06:31:55;1.93;;;1.70;;
10725;SDS011;5414;59.782;16.378;2023-04-10T06:34:21;3.03;;;2.07;;
10725;SDS011;5414;59.782;16.378;2023-04-10T06:36:47;2.30;;;2.00;;
10725;SDS011;5414;59.782;16.378;2023-04-10T06:39:13;3.53;;;2.27;;
10725;SDS011;5414;59.782;16.378;2023-04-10T06:41:39;3.17;;;2.10;;
10725;SDS011;5414;59.782;16.378;2023-04-10T06:44:05;2.97;;;2.17;;
10725;SDS011;5414;59.782;16.378;2023-04-10T06:46:31;3.17;;;2.73;;
10725;SDS011;5414;59.782;16.378;2023-04-10T06:48:57;2.93;;;2.50;;
10725;SDS011;5414;59.782;16.378;2023-04-10T06:51:23;3.87;;;2.33;;
10725;SDS011;5414;59.782;16.378;2023-04-10T06:53:50;3.63;;;2.30;;
10725;SDS011;5414;59.782;16.378;2023-04-10T06:56:15;3.13;;;2.13;;
10725;SDS011;5414;59.782;16.378;2023-04-10T06:58:42;2.67;;;2.20;;
10725;SDS011;5414;59.782;16.378;2023-04-10T07:01:08;2.90;;;2.50;;
10725;SDS011;5414;59.782;16.378;2023-04-10T07:03:34;3.70;;;2.10;;
10725;SDS011;5414;59.782;16.378;2023-04-10T07:06:00;3.37;;;2.33;;
10725;SDS011;5414;59.782;16.378;2023-04-10T07:08:27;2.70;;;2.30;;
10725;SDS011;5414;59.782;16.378;2023-04-10T07:10:53;4.23;;;2.27;;
10725;SDS011;5414;59.782;16.378;2023-04-10T07:13:19;2.97;;;2.20;;
10725;SDS011;5414;59.782;16.378;2023-04-10T07:15:45;3.03;;;1.90;;
10725;SDS011;5414;59.782;16.378;2023-04-10T07:18:11;5.57;;;2.30;;
10725;SDS011;5414;59.782;16.378;2023-04-10T07:20:37;3.17;;;2.13;;
10725;SDS011;5414;59.782;16.378;2023-04-10T07:23:03;1.97;;;1.70;;
10725;SDS011;5414;59.782;16.378;2023-04-10T07:25:29;2.90;;;2.20;;
10725;SDS011;5414;59.782;16.378;2023-04-10T07:27:55;2.47;;;1.77;;
10725;SDS011;5414;59.782;16.378;2023-04-10T07:30:21;2.10;;;1.90;;
10725;SDS011;5414;59.782;16.378;2023-04-10T07:32:47;2.27;;;1.63;;
10725;SDS011;5414;59.782;16.378;2023-04-10T07:35:13;3.97;;;1.90;;
10725;SDS011;5414;59.782;16.378;2023-04-10T07:37:39;1.80;;;1.70;;
10725;SDS011;5414;59.782;16.378;2023-04-10T07:40:08;2.13;;;1.50;;
10725;SDS011;5414;59.782;16.378;2023-04-10T07:42:34;1.50;;;1.40;;
10725;SDS011;5414;59.782;16.378;2023-04-10T07:45:00;1.40;;;1.30;;
10725;SDS011;5414;59.782;16.378;2023-04-10T07:47:26;2.00;;;1.47;;
10725;SDS011;5414;59.782;16.378;2023-04-10T07:49:52;1.70;;;1.60;;
10725;SDS011;5414;59.782;16.378;2023-04-10T07:52:18;1.53;;;1.40;;
10725;SDS011;5414;59.782;16.378;2023-04-10T07:54:45;2.43;;;1.50;;
10725;SDS011;5414;59.782;16.378;2023-04-10T07:57:11;1.53;;;1.30;;
10725;SDS011;5414;59.782;16.378;2023-04-10T07:59:37;2.73;;;1.70;;
10725;SDS011;5414;59.782;16.378;2023-04-10T08:02:03;3.27;;;1.50;;
10725;SDS011;5414;59.782;16.378;2023-04-10T08:04:29;2.13;;;1.50;;
10725;SDS011;5414;59.782;16.378;2023-04-10T08:06:55;2.13;;;1.60;;
10725;SDS011;5414;59.782;16.378;2023-04-10T08:09:21;2.63;;;1.70;;
10725;SDS011;5414;59.782;16.378;2023-04-10T08:11:47;3.17;;;1.50;;
10725;SDS011;5414;59.782;16.378;2023-04-10T08:14:13;1.93;;;1.60;;
10725;SDS011;5414;59.782;16.378;2023-04-10T08:16:39;3.17;;;1.50;;
10725;SDS011;5414;59.782;16.378;2023-04-10T08:19:05;1.73;;;1.27;;
10725;SDS011;5414;59.782;16.378;2023-04-10T08:21:31;2.33;;;1.20;;
10725;SDS011;5414;59.782;16.378;2023-04-10T08:23:58;2.53;;;1.30;;
10725;SDS011;5414;59.782;16.378;2023-04-10T08:26:25;2.57;;;1.37;;
10725;SDS011;5414;59.782;16.378;2023-04-10T08:28:52;3.53;;;1.10;;
10725;SDS011;5414;59.782;16.378;2023-04-10T08:31:19;1.83;;;1.30;;
10725;SDS011;5414;59.782;16.378;2023-04-10T08:33:45;1.30;;;1.20;;
10725;SDS011;5414;59.782;16.378;2023-04-10T08:36:12;1.43;;;1.20;;
10725;SDS011;5414;59.782;16.378;2023-04-10T08:38:41;1.97;;;1.00;;
10725;SDS011;5414;59.782;16.378;2023-04-10T08:41:17;0.90;;;0.80;;
10725;SDS011;5414;59.782;16.378;2023-04-10T08:43:43;2.77;;;1.33;;
10725;SDS011;5414;59.782;16.378;2023-04-10T08:46:10;1.10;;;1.00;;
10725;SDS011;5414;59.782;16.378;2023-04-10T08:49:00;1.60;;;0.90;;
10725;SDS011;5414;59.782;16.378;2023-04-10T08:51:36;1.20;;;1.10;;
10725;SDS011;5414;59.782;16.378;2023-04-10T08:54:13;1.77;;;1.17;;
10725;SDS011;5414;59.782;16.378;2023-04-10T08:56:44;1.67;;;1.07;;
10725;SDS011;5414;59.782;16.378;2023-04-10T08:59:11;1.63;;;1.20;;
10725;SDS011;5414;59.782;16.378;2023-04-10T09:01:38;2.47;;;1.10;;
10725;SDS011;5414;59.782;16.378;2023-04-10T09:04:04;2.87;;;1.30;;
10725;SDS011;5414;59.782;16.378;2023-04-10T09:06:31;1.53;;;0.90;;
10725;SDS011;5414;59.782;16.378;2023-04-10T09:08:57;1.47;;;0.93;;
10725;SDS011;5414;59.782;16.378;2023-04-10T09:11:37;1.30;;;1.03;;
10725;SDS011;5414;59.782;16.378;2023-04-10T09:14:18;1.90;;;1.43;;
10725;SDS011;5414;59.782;16.378;2023-04-10T09:16:45;2.13;;;1.17;;
10725;SDS011;5414;59.782;16.378;2023-04-10T09:19:11;1.97;;;1.20;;
10725;SDS011;5414;59.782;16.378;2023-04-10T09:21:37;1.30;;;1.13;;
10725;SDS011;5414;59.782;16.378;2023-04-10T09:24:03;2.27;;;1.30;;
10725;SDS011;5414;59.782;16.378;2023-04-10T09:26:30;3.37;;;1.23;;
10725;SDS011;5414;59.782;16.378;2023-04-10T09:28:58;1.57;;;1.10;;
10725;SDS011;5414;59.782;16.378;2023-04-10T09:31:29;1.63;;;1.07;;
10725;SDS011;5414;59.782;16.378;2023-04-10T09:34:08;1.67;;;1.30;;
10725;SDS011;5414;59.782;16.378;2023-04-10T09:36:35;1.77;;;1.07;;
10725;SDS011;5414;59.782;16.378;2023-04-10T09:39:02;1.67;;;1.20;;
10725;SDS011;5414;59.782;16.378;2023-04-10T09:41:28;1.77;;;1.20;;
10725;SDS011;5414;59.782;16.378;2023-04-10T09:44:09;1.60;;;1.50;;
10725;SDS011;5414;59.782;16.378;2023-04-10T09:46:36;1.77;;;1.20;;
10725;SDS011;5414;59.782;16.378;2023-04-10T09:49:02;1.50;;;1.10;;
10725;SDS011;5414;59.782;16.378;2023-04-10T09:51:32;1.87;;;1.20;;
10725;SDS011;5414;59.782;16.378;2023-04-10T09:53:58;1.27;;;1.07;;
10725;SDS011;5414;59.782;16.378;2023-04-10T09:56:25;2.53;;;1.30;;
10725;SDS011;5414;59.782;16.378;2023-04-10T09:58:52;1.40;;;1.27;;
10725;SDS011;5414;59.782;16.378;2023-04-10T10:01:20;1.30;;;1.20;;
10725;SDS011;5414;59.782;16.378;2023-04-10T10:03:46;1.90;;;1.40;;
10725;SDS011;5414;59.782;16.378;2023-04-10T10:06:12;1.90;;;1.30;;
10725;SDS011;5414;59.782;16.378;2023-04-10T10:08:39;2.77;;;1.67;;
10725;SDS011;5414;59.782;16.378;2023-04-10T10:11:05;2.27;;;1.37;;
10725;SDS011;5414;59.782;16.378;2023-04-10T10:13:50;2.30;;;1.40;;
10725;SDS011;5414;59.782;16.378;2023-04-10T10:18:55;3.00;;;1.60;;
10725;SDS011;5414;59.782;16.378;2023-04-10T10:21:25;2.87;;;1.50;;
10725;SDS011;5414;59.782;16.378;2023-04-10T10:23:52;2.17;;;1.70;;
10725;SDS011;5414;59.782;16.378;2023-04-10T10:26:19;2.43;;;1.50;;
10725;SDS011;5414;59.782;16.378;2023-04-10T10:28:48;1.80;;;1.47;;
10725;SDS011;5414;59.782;16.378;2023-04-10T10:31:16;2.03;;;1.50;;
10725;SDS011;5414;59.782;16.378;2023-04-10T10:33:43;1.50;;;1.30;;
10725;SDS011;5414;59.782;16.378;2023-04-10T10:36:11;2.47;;;1.60;;
10725;SDS011;5414;59.782;16.378;2023-04-10T10:38:43;1.70;;;1.60;;
10725;SDS011;5414;59.782;16.378;2023-04-10T10:41:15;2.07;;;1.40;;
10725;SDS011;5414;59.782;16.378;2023-04-10T10:43:49;1.70;;;1.57;;
10725;SDS011;5414;59.782;16.378;2023-04-10T10:46:23;2.13;;;1.67;;
10725;SDS011;5414;59.782;16.378;2023-04-10T10:48:56;3.73;;;1.67;;
10725;SDS011;5414;59.782;16.378;2023-04-10T10:51:22;2.53;;;1.40;;
10725;SDS011;5414;59.782;16.378;2023-04-10T10:53:48;1.90;;;1.50;;
10725;SDS011;5414;59.782;16.378;2023-04-10T10:58:50;1.70;;;1.50;;
10725;SDS011;5414;59.782;16.378;2023-04-10T11:01:17;4.00;;;1.83;;
10725;SDS011;5414;59.782;16.378;2023-04-10T11:03:44;2.30;;;1.70;;
10725;SDS011;5414;59.782;16.378;2023-04-10T11:06:17;2.17;;;1.47;;
10725;SDS011;5414;59.782;16.378;2023-04-10T11:08:44;3.83;;;1.67;;
10725;SDS011;5414;59.782;16.378;2023-04-10T11:13:40;4.17;;;1.70;;
10725;SDS011;5414;59.782;16.378;2023-04-10T11:16:07;1.97;;;1.60;;
10725;SDS011;5414;59.782;16.378;2023-04-10T11:21:12;2.30;;;1.80;;
10725;SDS011;5414;59.782;16.378;2023-04-10T11:24:00;2.23;;;1.73;;
10725;SDS011;5414;59.782;16.378;2023-04-10T11:28:59;2.47;;;1.50;;
10725;SDS011;5414;59.782;16.378;2023-04-10T11:31:26;2.90;;;1.70;;
10725;SDS011;5414;59.782;16.378;2023-04-10T11:36:24;2.97;;;1.80;;
10725;SDS011;5414;59.782;16.378;2023-04-10T11:38:54;2.27;;;1.63;;
10725;SDS011;5414;59.782;16.378;2023-04-10T11:41:20;4.13;;;1.80;;
10725;SDS011;5414;59.782;16.378;2023-04-10T11:43:50;2.57;;;1.70;;
10725;SDS011;5414;59.782;16.378;2023-04-10T11:46:16;1.70;;;1.60;;
10725;SDS011;5414;59.782;16.378;2023-04-10T11:48:42;2.10;;;1.90;;
10725;SDS011;5414;59.782;16.378;2023-04-10T11:51:09;3.77;;;2.10;;
10725;SDS011;5414;59.782;16.378;2023-04-10T11:53:36;2.37;;;1.80;;
10725;SDS011;5414;59.782;16.378;2023-04-10T11:56:02;2.53;;;1.63;;
10725;SDS011;5414;59.782;16.378;2023-04-10T11:58:28;1.50;;;1.40;;
10725;SDS011;5414;59.782;16.378;2023-04-10T12:00:59;2.37;;;1.90;;
10725;SDS011;5414;59.782;16.378;2023-04-10T12:03:32;3.90;;;1.60;;
10725;SDS011;5414;59.782;16.378;2023-04-10T12:05:59;1.77;;;1.60;;
10725;SDS011;5414;59.782;16.378;2023-04-10T12:08:34;2.87;;;1.90;;
10725;SDS011;5414;59.782;16.378;2023-04-10T12:11:01;1.93;;;1.70;;
10725;SDS011;5414;59.782;16.378;2023-04-10T12:13:27;2.07;;;1.43;;
10725;SDS011;5414;59.782;16.378;2023-04-10T12:15:56;2.10;;;1.90;;
10725;SDS011;5414;59.782;16.378;2023-04-10T12:18:22;3.70;;;2.00;;
10725;SDS011;5414;59.782;16.378;2023-04-10T12:20:48;1.80;;;1.70;;
10725;SDS011;5414;59.782;16.378;2023-04-10T12:23:19;2.33;;;1.60;;
10725;SDS011;5414;59.782;16.378;2023-04-10T12:25:45;2.10;;;1.80;;
10725;SDS011;5414;59.782;16.378;2023-04-10T12:28:20;1.90;;;1.50;;
10725;SDS011;5414;59.782;16.378;2023-04-10T12:30:47;2.10;;;1.67;;
10725;SDS011;5414;59.782;16.378;2023-04-10T12:33:13;1.80;;;1.70;;
10725;SDS011;5414;59.782;16.378;2023-04-10T12:35:40;1.87;;;1.50;;
10725;SDS011;5414;59.782;16.378;2023-04-10T12:38:09;2.00;;;1.83;;
10725;SDS011;5414;59.782;16.378;2023-04-10T12:40:35;2.07;;;1.70;;
10725;SDS011;5414;59.782;16.378;2023-04-10T12:43:02;1.90;;;1.80;;
10725;SDS011;5414;59.782;16.378;2023-04-10T12:45:41;1.70;;;1.60;;
10725;SDS011;5414;59.782;16.378;2023-04-10T12:48:08;4.23;;;1.70;;
10725;SDS011;5414;59.782;16.378;2023-04-10T12:50:34;4.17;;;1.93;;
10725;SDS011;5414;59.782;16.378;2023-04-10T12:53:12;2.40;;;1.60;;
10725;SDS011;5414;59.782;16.378;2023-04-10T12:55:40;3.40;;;1.90;;
10725;SDS011;5414;59.782;16.378;2023-04-10T12:58:19;1.87;;;1.60;;
10725;SDS011;5414;59.782;16.378;2023-04-10T13:00:45;2.10;;;1.70;;
10725;SDS011;5414;59.782;16.378;2023-04-10T13:03:12;1.97;;;1.50;;
10725;SDS011;5414;59.782;16.378;2023-04-10T13:05:38;2.27;;;1.43;;
10725;SDS011;5414;59.782;16.378;2023-04-10T13:08:04;1.80;;;1.57;;
10725;SDS011;5414;59.782;16.378;2023-04-10T13:10:30;1.67;;;1.53;;
10725;SDS011;5414;59.782;16.378;2023-04-10T13:12:56;4.17;;;1.80;;
10725;SDS011;5414;59.782;16.378;2023-04-10T13:15:22;1.77;;;1.40;;
10725;SDS011;5414;59.782;16.378;2023-04-10T13:17:49;1.50;;;1.40;;
10725;SDS011;5414;59.782;16.378;2023-04-10T13:20:15;4.23;;;1.70;;
10725;SDS011;5414;59.782;16.378;2023-04-10T13:22:42;1.63;;;1.30;;
10725;SDS011;5414;59.782;16.378;2023-04-10T13:25:08;2.23;;;1.70;;
10725;SDS011;5414;59.782;16.378;2023-04-10T13:27:34;1.80;;;1.40;;
10725;SDS011;5414;59.782;16.378;2023-04-10T13:30:00;2.47;;;1.43;;
10725;SDS011;5414;59.782;16.378;2023-04-10T13:32:26;1.63;;;1.30;;
10725;SDS011;5414;59.782;16.378;2023-04-10T13:34:52;2.03;;;1.50;;
10725;SDS011;5414;59.782;16.378;2023-04-10T13:37:19;3.47;;;1.60;;
10725;SDS011;5414;59.782;16.378;2023-04-10T13:39:45;3.13;;;1.60;;
10725;SDS011;5414;59.782;16.378;2023-04-10T13:42:11;1.60;;;1.40;;
10725;SDS011;5414;59.782;16.378;2023-04-10T13:44:37;2.30;;;1.20;;
10725;SDS011;5414;59.782;16.378;2023-04-10T13:47:03;1.67;;;1.30;;
10725;SDS011;5414;59.782;16.378;2023-04-10T13:49:30;2.37;;;1.43;;
10725;SDS011;5414;59.782;16.378;2023-04-10T13:51:56;1.80;;;1.23;;
10725;SDS011;5414;59.782;16.378;2023-04-10T13:54:22;1.97;;;1.40;;
10725;SDS011;5414;59.782;16.378;2023-04-10T13:56:48;1.53;;;1.43;;
10725;SDS011;5414;59.782;16.378;2023-04-10T13:59:15;4.70;;;1.60;;
10725;SDS011;5414;59.782;16.378;2023-04-10T14:01:41;2.43;;;1.53;;
10725;SDS011;5414;59.782;16.378;2023-04-10T14:04:07;1.67;;;1.57;;
10725;SDS011;5414;59.782;16.378;2023-04-10T14:06:33;1.67;;;1.30;;
10725;SDS011;5414;59.782;16.378;2023-04-10T14:08:59;2.83;;;1.50;;
10725;SDS011;5414;59.782;16.378;2023-04-10T14:11:25;1.73;;;1.20;;
10725;SDS011;5414;59.782;16.378;2023-04-10T14:13:51;2.33;;;1.53;;
10725;SDS011;5414;59.782;16.378;2023-04-10T14:16:17;1.60;;;1.30;;
10725;SDS011;5414;59.782;16.378;2023-04-10T14:18:43;2.60;;;1.47;;
10725;SDS011;5414;59.782;16.378;2023-04-10T14:21:09;2.37;;;1.60;;
10725;SDS011;5414;59.782;16.378;2023-04-10T14:23:35;2.30;;;1.33;;
10725;SDS011;5414;59.782;16.378;2023-04-10T14:26:03;1.60;;;1.50;;
10725;SDS011;5414;59.782;16.378;2023-04-10T14:28:30;1.80;;;1.40;;
10725;SDS011;5414;59.782;16.378;2023-04-10T14:30:56;2.20;;;1.50;;
10725;SDS011;5414;59.782;16.378;2023-04-10T14:33:22;1.63;;;1.53;;
10725;SDS011;5414;59.782;16.378;2023-04-10T14:35:48;4.80;;;1.50;;
10725;SDS011;5414;59.782;16.378;2023-04-10T14:38:14;1.70;;;1.40;;
10725;SDS011;5414;59.782;16.378;2023-04-10T14:40:40;1.70;;;1.60;;
10725;SDS011;5414;59.782;16.378;2023-04-10T14:43:07;1.90;;;1.40;;
10725;SDS011;5414;59.782;16.378;2023-04-10T14:45:33;3.20;;;1.40;;
10725;SDS011;5414;59.782;16.378;2023-04-10T14:48:00;2.83;;;1.50;;
10725;SDS011;5414;59.782;16.378;2023-04-10T14:50:26;3.33;;;1.63;;
10725;SDS011;5414;59.782;16.378;2023-04-10T14:52:53;2.50;;;1.70;;
10725;SDS011;5414;59.782;16.378;2023-04-10T14:55:19;2.80;;;1.57;;
10725;SDS011;5414;59.782;16.378;2023-04-10T14:57:45;1.97;;;1.50;;
10725;SDS011;5414;59.782;16.378;2023-04-10T15:00:11;2.73;;;1.73;;
10725;SDS011;5414;59.782;16.378;2023-04-10T15:02:37;1.53;;;1.40;;
10725;SDS011;5414;59.782;16.378;2023-04-10T15:05:04;2.00;;;1.60;;
10725;SDS011;5414;59.782;16.378;2023-04-10T15:07:30;2.33;;;1.80;;
10725;SDS011;5414;59.782;16.378;2023-04-10T15:09:56;2.30;;;1.73;;
10725;SDS011;5414;59.782;16.378;2023-04-10T15:12:22;1.80;;;1.50;;